sensor_id;sensor_type;location;lat;lon;timestamp;temperature;humidity
67899;DHT22;54699;51.796;10.956;2022-08-19T00:00:04;26.20;56.50
67899;DHT22;54699;51.796;10.956;2022-08-19T00:02:34;26.20;56.60
67899;DHT22;54699;51.796;10.956;2022-08-19T00:05:01;26.20;56.50
67899;DHT22;54699;51.796;10.956;2022-08-19T00:07:28;26.20;56.40
67899;DHT22;54699;51.796;10.956;2022-08-19T00:09:57;26.20;56.40
67899;DHT22;54699;51.796;10.956;2022-08-19T00:12:23;26.20;56.50
67899;DHT22;54699;51.796;10.956;2022-08-19T00:14:50;26.20;56.50
67899;DHT22;54699;51.796;10.956;2022-08-19T00:17:19;26.20;56.50
67899;DHT22;54699;51.796;10.956;2022-08-19T00:19:46;26.20;56.40
67899;DHT22;54699;51.796;10.956;2022-08-19T00:22:13;26.20;56.50
67899;DHT22;54699;51.796;10.956;2022-08-19T00:24:39;26.20;56.50
67899;DHT22;54699;51.796;10.956;2022-08-19T00:27:10;26.20;56.50
67899;DHT22;54699;51.796;10.956;2022-08-19T00:29:37;26.10;56.40
67899;DHT22;54699;51.796;10.956;2022-08-19T00:32:05;26.20;56.50
67899;DHT22;54699;51.796;10.956;2022-08-19T00:34:32;26.20;56.60
67899;DHT22;54699;51.796;10.956;2022-08-19T00:36:58;26.10;56.60
67899;DHT22;54699;51.796;10.956;2022-08-19T00:39:25;26.10;56.60
67899;DHT22;54699;51.796;10.956;2022-08-19T00:41:52;26.10;56.50
67899;DHT22;54699;51.796;10.956;2022-08-19T00:44:22;26.10;56.50
67899;DHT22;54699;51.796;10.956;2022-08-19T00:46:51;26.10;56.60
67899;DHT22;54699;51.796;10.956;2022-08-19T00:49:20;26.20;56.60
67899;DHT22;54699;51.796;10.956;2022-08-19T00:51:51;26.10;56.60
67899;DHT22;54699;51.796;10.956;2022-08-19T00:54:21;26.10;56.50
67899;DHT22;54699;51.796;10.956;2022-08-19T00:56:48;26.10;56.60
67899;DHT22;54699;51.796;10.956;2022-08-19T00:59:16;26.10;56.40
67899;DHT22;54699;51.796;10.956;2022-08-19T01:01:45;26.10;56.60
67899;DHT22;54699;51.796;10.956;2022-08-19T01:04:13;26.10;56.60
67899;DHT22;54699;51.796;10.956;2022-08-19T01:06:40;26.10;56.70
67899;DHT22;54699;51.796;10.956;2022-08-19T01:09:07;26.10;56.60
67899;DHT22;54699;51.796;10.956;2022-08-19T01:11:35;26.10;56.60
67899;DHT22;54699;51.796;10.956;2022-08-19T01:14:05;26.10;56.60
67899;DHT22;54699;51.796;10.956;2022-08-19T01:16:33;26.10;56.60
67899;DHT22;54699;51.796;10.956;2022-08-19T01:19:02;26.10;56.50
67899;DHT22;54699;51.796;10.956;2022-08-19T01:21:39;26.10;56.70
67899;DHT22;54699;51.796;10.956;2022-08-19T01:24:09;26.10;56.60
67899;DHT22;54699;51.796;10.956;2022-08-19T01:26:38;26.10;56.60
67899;DHT22;54699;51.796;10.956;2022-08-19T01:29:07;26.10;56.70
67899;DHT22;54699;51.796;10.956;2022-08-19T01:31:34;26.10;56.60
67899;DHT22;54699;51.796;10.956;2022-08-19T01:34:02;26.10;56.60
67899;DHT22;54699;51.796;10.956;2022-08-19T01:36:30;26.10;56.60
67899;DHT22;54699;51.796;10.956;2022-08-19T01:38:59;26.10;56.60
67899;DHT22;54699;51.796;10.956;2022-08-19T01:41:28;26.10;56.60
67899;DHT22;54699;51.796;10.956;2022-08-19T01:43:55;26.10;56.60
67899;DHT22;54699;51.796;10.956;2022-08-19T01:46:22;26.10;56.60
67899;DHT22;54699;51.796;10.956;2022-08-19T01:48:49;26.10;56.60
67899;DHT22;54699;51.796;10.956;2022-08-19T01:51:15;26.10;56.60
67899;DHT22;54699;51.796;10.956;2022-08-19T01:53:45;26.10;57.50
67899;DHT22;54699;51.796;10.956;2022-08-19T01:56:13;26.10;56.70
67899;DHT22;54699;51.796;10.956;2022-08-19T01:58:43;26.10;56.70
67899;DHT22;54699;51.796;10.956;2022-08-19T02:01:16;26.10;56.70
67899;DHT22;54699;51.796;10.956;2022-08-19T02:03:43;26.10;56.70
67899;DHT22;54699;51.796;10.956;2022-08-19T02:06:11;26.10;56.80
67899;DHT22;54699;51.796;10.956;2022-08-19T02:08:38;26.10;56.70
67899;DHT22;54699;51.796;10.956;2022-08-19T02:11:06;26.10;56.70
67899;DHT22;54699;51.796;10.956;2022-08-19T02:13:33;26.10;56.60
67899;DHT22;54699;51.796;10.956;2022-08-19T02:16:02;26.10;56.80
67899;DHT22;54699;51.796;10.956;2022-08-19T02:18:29;26.10;56.70
67899;DHT22;54699;51.796;10.956;2022-08-19T02:20:55;26.10;56.70
67899;DHT22;54699;51.796;10.956;2022-08-19T02:23:22;26.10;56.70
67899;DHT22;54699;51.796;10.956;2022-08-19T02:25:49;26.10;56.70
67899;DHT22;54699;51.796;10.956;2022-08-19T02:28:17;26.10;56.70
67899;DHT22;54699;51.796;10.956;2022-08-19T02:30:44;26.10;56.80
67899;DHT22;54699;51.796;10.956;2022-08-19T02:33:13;26.10;56.70
67899;DHT22;54699;51.796;10.956;2022-08-19T02:35:40;26.10;56.80
67899;DHT22;54699;51.796;10.956;2022-08-19T02:38:08;26.10;56.80
67899;DHT22;54699;51.796;10.956;2022-08-19T02:40:53;26.00;56.80
67899;DHT22;54699;51.796;10.956;2022-08-19T02:43:22;26.00;56.70
67899;DHT22;54699;51.796;10.956;2022-08-19T02:45:49;26.00;56.70
67899;DHT22;54699;51.796;10.956;2022-08-19T02:48:19;26.00;56.70
67899;DHT22;54699;51.796;10.956;2022-08-19T02:50:48;26.00;56.80
67899;DHT22;54699;51.796;10.956;2022-08-19T02:53:20;26.00;56.70
67899;DHT22;54699;51.796;10.956;2022-08-19T02:55:48;26.10;56.80
67899;DHT22;54699;51.796;10.956;2022-08-19T02:58:16;26.00;56.70
67899;DHT22;54699;51.796;10.956;2022-08-19T03:00:44;26.10;56.80
67899;DHT22;54699;51.796;10.956;2022-08-19T03:03:13;26.00;56.90
67899;DHT22;54699;51.796;10.956;2022-08-19T03:05:42;26.00;56.70
67899;DHT22;54699;51.796;10.956;2022-08-19T03:08:09;26.00;56.80
67899;DHT22;54699;51.796;10.956;2022-08-19T03:10:41;26.00;56.80
67899;DHT22;54699;51.796;10.956;2022-08-19T03:13:11;26.00;56.80
67899;DHT22;54699;51.796;10.956;2022-08-19T03:15:39;26.00;56.90
67899;DHT22;54699;51.796;10.956;2022-08-19T03:18:07;26.00;56.80
67899;DHT22;54699;51.796;10.956;2022-08-19T03:20:39;26.00;56.80
67899;DHT22;54699;51.796;10.956;2022-08-19T03:23:08;26.00;56.80
67899;DHT22;54699;51.796;10.956;2022-08-19T03:25:36;26.00;56.80
67899;DHT22;54699;51.796;10.956;2022-08-19T03:28:04;26.00;56.90
67899;DHT22;54699;51.796;10.956;2022-08-19T03:30:30;26.00;56.80
67899;DHT22;54699;51.796;10.956;2022-08-19T03:32:57;26.00;56.80
67899;DHT22;54699;51.796;10.956;2022-08-19T03:35:24;26.00;56.80
67899;DHT22;54699;51.796;10.956;2022-08-19T03:37:52;26.00;56.80
67899;DHT22;54699;51.796;10.956;2022-08-19T03:40:18;26.00;56.90
67899;DHT22;54699;51.796;10.956;2022-08-19T03:42:45;26.00;56.80
67899;DHT22;54699;51.796;10.956;2022-08-19T03:45:12;26.00;57.80
67899;DHT22;54699;51.796;10.956;2022-08-19T03:47:39;26.00;56.90
67899;DHT22;54699;51.796;10.956;2022-08-19T03:50:05;26.00;56.90
67899;DHT22;54699;51.796;10.956;2022-08-19T03:52:33;26.00;56.90
67899;DHT22;54699;51.796;10.956;2022-08-19T03:55:02;26.00;56.90
67899;DHT22;54699;51.796;10.956;2022-08-19T03:57:29;26.00;56.90
67899;DHT22;54699;51.796;10.956;2022-08-19T03:59:57;26.00;56.90
67899;DHT22;54699;51.796;10.956;2022-08-19T04:02:24;26.00;56.90
67899;DHT22;54699;51.796;10.956;2022-08-19T04:04:52;26.00;56.90
67899;DHT22;54699;51.796;10.956;2022-08-19T04:07:20;26.00;56.80
67899;DHT22;54699;51.796;10.956;2022-08-19T04:09:47;26.00;56.90
67899;DHT22;54699;51.796;10.956;2022-08-19T04:12:15;26.00;56.90
67899;DHT22;54699;51.796;10.956;2022-08-19T04:14:42;26.00;56.90
67899;DHT22;54699;51.796;10.956;2022-08-19T04:17:09;26.00;56.90
67899;DHT22;54699;51.796;10.956;2022-08-19T04:19:38;26.00;56.90
67899;DHT22;54699;51.796;10.956;2022-08-19T04:22:04;26.00;56.90
67899;DHT22;54699;51.796;10.956;2022-08-19T04:24:32;26.00;57.80
67899;DHT22;54699;51.796;10.956;2022-08-19T04:26:59;26.00;56.80
67899;DHT22;54699;51.796;10.956;2022-08-19T04:29:28;26.00;56.90
67899;DHT22;54699;51.796;10.956;2022-08-19T04:31:55;26.00;56.90
67899;DHT22;54699;51.796;10.956;2022-08-19T04:34:24;26.00;57.00
67899;DHT22;54699;51.796;10.956;2022-08-19T04:36:54;26.00;57.10
67899;DHT22;54699;51.796;10.956;2022-08-19T04:39:23;26.00;57.20
67899;DHT22;54699;51.796;10.956;2022-08-19T04:42:12;26.00;57.20
67899;DHT22;54699;51.796;10.956;2022-08-19T04:44:59;26.00;57.10
67899;DHT22;54699;51.796;10.956;2022-08-19T04:47:26;25.90;57.10
67899;DHT22;54699;51.796;10.956;2022-08-19T04:49:52;26.00;57.10
67899;DHT22;54699;51.796;10.956;2022-08-19T04:52:19;26.00;57.10
67899;DHT22;54699;51.796;10.956;2022-08-19T04:54:46;26.00;57.20
67899;DHT22;54699;51.796;10.956;2022-08-19T04:57:13;26.00;57.10
67899;DHT22;54699;51.796;10.956;2022-08-19T04:59:40;25.90;57.10
67899;DHT22;54699;51.796;10.956;2022-08-19T05:02:08;26.00;57.10
67899;DHT22;54699;51.796;10.956;2022-08-19T05:04:36;26.00;57.10
67899;DHT22;54699;51.796;10.956;2022-08-19T05:07:04;25.90;56.90
67899;DHT22;54699;51.796;10.956;2022-08-19T05:09:31;26.00;57.10
67899;DHT22;54699;51.796;10.956;2022-08-19T05:11:58;26.00;57.00
67899;DHT22;54699;51.796;10.956;2022-08-19T05:14:25;25.90;56.90
67899;DHT22;54699;51.796;10.956;2022-08-19T05:16:51;26.00;57.00
67899;DHT22;54699;51.796;10.956;2022-08-19T05:19:19;25.90;57.10
67899;DHT22;54699;51.796;10.956;2022-08-19T05:22:03;25.90;57.00
67899;DHT22;54699;51.796;10.956;2022-08-19T05:24:48;25.90;57.10
67899;DHT22;54699;51.796;10.956;2022-08-19T05:27:15;25.90;57.10
67899;DHT22;54699;51.796;10.956;2022-08-19T05:29:41;25.90;57.10
67899;DHT22;54699;51.796;10.956;2022-08-19T05:32:08;25.90;57.00
67899;DHT22;54699;51.796;10.956;2022-08-19T05:34:37;25.90;57.10
67899;DHT22;54699;51.796;10.956;2022-08-19T05:37:04;25.90;57.00
67899;DHT22;54699;51.796;10.956;2022-08-19T05:39:33;25.90;56.80
67899;DHT22;54699;51.796;10.956;2022-08-19T05:42:03;25.90;57.10
67899;DHT22;54699;51.796;10.956;2022-08-19T05:44:33;25.90;56.90
67899;DHT22;54699;51.796;10.956;2022-08-19T05:47:02;25.90;57.10
67899;DHT22;54699;51.796;10.956;2022-08-19T05:49:32;25.90;57.10
67899;DHT22;54699;51.796;10.956;2022-08-19T05:52:02;25.90;57.00
67899;DHT22;54699;51.796;10.956;2022-08-19T05:54:30;25.90;57.00
67899;DHT22;54699;51.796;10.956;2022-08-19T05:56:57;25.90;56.90
67899;DHT22;54699;51.796;10.956;2022-08-19T05:59:23;25.90;57.00
67899;DHT22;54699;51.796;10.956;2022-08-19T06:01:51;25.90;57.10
67899;DHT22;54699;51.796;10.956;2022-08-19T06:04:19;25.90;57.10
67899;DHT22;54699;51.796;10.956;2022-08-19T06:06:48;25.90;57.20
67899;DHT22;54699;51.796;10.956;2022-08-19T06:09:18;25.90;57.20
67899;DHT22;54699;51.796;10.956;2022-08-19T06:11:46;25.90;57.20
67899;DHT22;54699;51.796;10.956;2022-08-19T06:14:14;25.90;57.30
67899;DHT22;54699;51.796;10.956;2022-08-19T06:16:43;25.90;57.20
67899;DHT22;54699;51.796;10.956;2022-08-19T06:19:11;25.90;57.10
67899;DHT22;54699;51.796;10.956;2022-08-19T06:21:40;25.90;57.20
67899;DHT22;54699;51.796;10.956;2022-08-19T06:24:09;25.90;57.10
67899;DHT22;54699;51.796;10.956;2022-08-19T06:26:39;25.90;57.20
67899;DHT22;54699;51.796;10.956;2022-08-19T06:29:08;25.70;55.80
67899;DHT22;54699;51.796;10.956;2022-08-19T06:31:40;25.20;55.80
67899;DHT22;54699;51.796;10.956;2022-08-19T06:34:07;24.70;56.40
67899;DHT22;54699;51.796;10.956;2022-08-19T06:36:35;24.30;57.00
67899;DHT22;54699;51.796;10.956;2022-08-19T06:39:04;24.30;57.50
67899;DHT22;54699;51.796;10.956;2022-08-19T06:41:34;24.20;57.40
67899;DHT22;54699;51.796;10.956;2022-08-19T06:44:03;24.20;57.60
67899;DHT22;54699;51.796;10.956;2022-08-19T06:46:30;24.10;57.70
67899;DHT22;54699;51.796;10.956;2022-08-19T06:48:57;24.10;57.60
67899;DHT22;54699;51.796;10.956;2022-08-19T06:51:24;24.10;57.50
67899;DHT22;54699;51.796;10.956;2022-08-19T06:53:52;24.20;57.30
67899;DHT22;54699;51.796;10.956;2022-08-19T06:56:22;23.90;57.70
67899;DHT22;54699;51.796;10.956;2022-08-19T06:58:55;24.00;57.60
67899;DHT22;54699;51.796;10.956;2022-08-19T07:01:23;24.00;57.80
67899;DHT22;54699;51.796;10.956;2022-08-19T07:03:50;24.30;57.40
67899;DHT22;54699;51.796;10.956;2022-08-19T07:06:17;24.40;57.00
67899;DHT22;54699;51.796;10.956;2022-08-19T07:08:45;24.40;56.70
67899;DHT22;54699;51.796;10.956;2022-08-19T07:11:14;24.50;56.60
67899;DHT22;54699;51.796;10.956;2022-08-19T07:13:44;24.60;56.40
67899;DHT22;54699;51.796;10.956;2022-08-19T07:16:13;24.60;56.20
67899;DHT22;54699;51.796;10.956;2022-08-19T07:18:46;24.70;56.00
67899;DHT22;54699;51.796;10.956;2022-08-19T07:21:16;24.80;55.90
67899;DHT22;54699;51.796;10.956;2022-08-19T07:23:44;24.80;56.00
67899;DHT22;54699;51.796;10.956;2022-08-19T07:26:12;24.90;55.90
67899;DHT22;54699;51.796;10.956;2022-08-19T07:28:41;24.90;55.60
67899;DHT22;54699;51.796;10.956;2022-08-19T07:31:10;25.00;55.40
67899;DHT22;54699;51.796;10.956;2022-08-19T07:33:38;25.00;55.30
67899;DHT22;54699;51.796;10.956;2022-08-19T07:36:07;25.00;55.30
67899;DHT22;54699;51.796;10.956;2022-08-19T07:38:36;25.10;55.10
67899;DHT22;54699;51.796;10.956;2022-08-19T07:41:04;25.10;55.10
67899;DHT22;54699;51.796;10.956;2022-08-19T07:43:31;25.10;55.00
67899;DHT22;54699;51.796;10.956;2022-08-19T07:45:58;25.10;54.80
67899;DHT22;54699;51.796;10.956;2022-08-19T07:48:25;25.20;54.70
67899;DHT22;54699;51.796;10.956;2022-08-19T07:50:54;25.20;54.50
67899;DHT22;54699;51.796;10.956;2022-08-19T07:53:23;25.00;54.40
67899;DHT22;54699;51.796;10.956;2022-08-19T07:55:51;25.00;54.40
67899;DHT22;54699;51.796;10.956;2022-08-19T07:58:19;25.00;54.40
67899;DHT22;54699;51.796;10.956;2022-08-19T08:00:48;24.90;54.40
67899;DHT22;54699;51.796;10.956;2022-08-19T08:03:16;24.90;54.60
67899;DHT22;54699;51.796;10.956;2022-08-19T08:05:45;24.90;54.20
67899;DHT22;54699;51.796;10.956;2022-08-19T08:08:30;24.90;54.30
67899;DHT22;54699;51.796;10.956;2022-08-19T08:11:15;24.80;54.40
67899;DHT22;54699;51.796;10.956;2022-08-19T08:13:43;24.80;54.30
67899;DHT22;54699;51.796;10.956;2022-08-19T08:16:11;24.70;54.40
67899;DHT22;54699;51.796;10.956;2022-08-19T08:18:38;24.70;54.20
67899;DHT22;54699;51.796;10.956;2022-08-19T08:21:07;24.60;54.30
67899;DHT22;54699;51.796;10.956;2022-08-19T08:23:36;24.60;55.40
67899;DHT22;54699;51.796;10.956;2022-08-19T08:26:02;24.60;54.60
67899;DHT22;54699;51.796;10.956;2022-08-19T08:28:29;24.70;54.20
67899;DHT22;54699;51.796;10.956;2022-08-19T08:30:57;24.70;54.20
67899;DHT22;54699;51.796;10.956;2022-08-19T08:33:25;24.70;54.30
67899;DHT22;54699;51.796;10.956;2022-08-19T08:35:53;24.70;54.40
67899;DHT22;54699;51.796;10.956;2022-08-19T08:38:20;24.70;54.20
67899;DHT22;54699;51.796;10.956;2022-08-19T08:40:49;24.70;54.60
67899;DHT22;54699;51.796;10.956;2022-08-19T08:43:22;24.70;54.30
67899;DHT22;54699;51.796;10.956;2022-08-19T08:45:55;24.70;54.20
67899;DHT22;54699;51.796;10.956;2022-08-19T08:48:29;24.60;54.40
67899;DHT22;54699;51.796;10.956;2022-08-19T08:51:02;24.60;54.30
67899;DHT22;54699;51.796;10.956;2022-08-19T08:53:31;24.60;54.70
67899;DHT22;54699;51.796;10.956;2022-08-19T08:56:00;24.60;54.30
67899;DHT22;54699;51.796;10.956;2022-08-19T08:58:31;24.70;54.30
67899;DHT22;54699;51.796;10.956;2022-08-19T09:01:08;24.70;54.10
67899;DHT22;54699;51.796;10.956;2022-08-19T09:03:36;24.80;54.20
67899;DHT22;54699;51.796;10.956;2022-08-19T09:06:07;24.80;54.40
67899;DHT22;54699;51.796;10.956;2022-08-19T09:08:40;24.90;54.30
67899;DHT22;54699;51.796;10.956;2022-08-19T09:11:18;24.90;54.40
67899;DHT22;54699;51.796;10.956;2022-08-19T09:13:58;24.90;54.10
67899;DHT22;54699;51.796;10.956;2022-08-19T09:16:33;24.90;54.00
67899;DHT22;54699;51.796;10.956;2022-08-19T09:19:02;25.00;55.00
67899;DHT22;54699;51.796;10.956;2022-08-19T09:21:31;25.00;53.90
67899;DHT22;54699;51.796;10.956;2022-08-19T09:23:57;25.00;53.90
67899;DHT22;54699;51.796;10.956;2022-08-19T09:26:26;25.00;53.90
67899;DHT22;54699;51.796;10.956;2022-08-19T09:28:53;25.00;53.80
67899;DHT22;54699;51.796;10.956;2022-08-19T09:31:20;25.00;53.80
67899;DHT22;54699;51.796;10.956;2022-08-19T09:33:50;25.10;53.80
67899;DHT22;54699;51.796;10.956;2022-08-19T09:36:18;25.10;53.90
67899;DHT22;54699;51.796;10.956;2022-08-19T09:38:47;25.10;53.80
67899;DHT22;54699;51.796;10.956;2022-08-19T09:41:15;25.10;53.80
67899;DHT22;54699;51.796;10.956;2022-08-19T09:43:45;25.10;53.70
67899;DHT22;54699;51.796;10.956;2022-08-19T09:46:14;25.10;53.60
67899;DHT22;54699;51.796;10.956;2022-08-19T09:48:42;25.10;53.40
67899;DHT22;54699;51.796;10.956;2022-08-19T09:51:11;25.10;53.40
67899;DHT22;54699;51.796;10.956;2022-08-19T09:53:41;25.20;53.50
67899;DHT22;54699;51.796;10.956;2022-08-19T09:56:08;25.10;53.50
67899;DHT22;54699;51.796;10.956;2022-08-19T09:58:38;25.20;53.50
67899;DHT22;54699;51.796;10.956;2022-08-19T10:01:07;25.20;53.50
67899;DHT22;54699;51.796;10.956;2022-08-19T10:03:35;25.20;53.60
67899;DHT22;54699;51.796;10.956;2022-08-19T10:06:03;25.20;53.40
67899;DHT22;54699;51.796;10.956;2022-08-19T10:08:32;25.20;53.30
67899;DHT22;54699;51.796;10.956;2022-08-19T10:11:00;25.20;53.20
67899;DHT22;54699;51.796;10.956;2022-08-19T10:13:29;25.20;53.30
67899;DHT22;54699;51.796;10.956;2022-08-19T10:16:02;25.20;53.20
67899;DHT22;54699;51.796;10.956;2022-08-19T10:18:32;25.20;53.20
67899;DHT22;54699;51.796;10.956;2022-08-19T10:21:04;25.20;53.30
67899;DHT22;54699;51.796;10.956;2022-08-19T10:23:36;25.20;53.10
67899;DHT22;54699;51.796;10.956;2022-08-19T10:26:04;25.20;53.20
67899;DHT22;54699;51.796;10.956;2022-08-19T10:28:32;25.20;53.30
67899;DHT22;54699;51.796;10.956;2022-08-19T10:31:03;25.20;53.30
67899;DHT22;54699;51.796;10.956;2022-08-19T10:33:33;25.20;53.20
67899;DHT22;54699;51.796;10.956;2022-08-19T10:36:00;25.20;53.00
67899;DHT22;54699;51.796;10.956;2022-08-19T10:38:27;25.30;53.10
67899;DHT22;54699;51.796;10.956;2022-08-19T10:40:55;25.20;53.00
67899;DHT22;54699;51.796;10.956;2022-08-19T10:43:22;25.30;53.00
67899;DHT22;54699;51.796;10.956;2022-08-19T10:45:53;25.30;53.00
67899;DHT22;54699;51.796;10.956;2022-08-19T10:48:22;25.30;53.00
67899;DHT22;54699;51.796;10.956;2022-08-19T10:50:50;25.30;53.00
67899;DHT22;54699;51.796;10.956;2022-08-19T10:53:34;25.30;52.70
67899;DHT22;54699;51.796;10.956;2022-08-19T10:56:01;25.30;52.80
67899;DHT22;54699;51.796;10.956;2022-08-19T10:58:46;25.30;52.60
67899;DHT22;54699;51.796;10.956;2022-08-19T11:01:13;25.30;52.70
67899;DHT22;54699;51.796;10.956;2022-08-19T11:03:40;25.40;52.80
67899;DHT22;54699;51.796;10.956;2022-08-19T11:06:08;25.30;52.80
67899;DHT22;54699;51.796;10.956;2022-08-19T11:08:35;25.40;53.00
67899;DHT22;54699;51.796;10.956;2022-08-19T11:11:04;25.40;52.60
67899;DHT22;54699;51.796;10.956;2022-08-19T11:13:33;25.40;52.90
67899;DHT22;54699;51.796;10.956;2022-08-19T11:16:04;25.40;52.60
67899;DHT22;54699;51.796;10.956;2022-08-19T11:18:33;25.40;52.80
67899;DHT22;54699;51.796;10.956;2022-08-19T11:21:10;25.40;52.60
67899;DHT22;54699;51.796;10.956;2022-08-19T11:23:38;25.40;52.70
67899;DHT22;54699;51.796;10.956;2022-08-19T11:26:06;25.40;52.50
67899;DHT22;54699;51.796;10.956;2022-08-19T11:28:33;25.40;52.50
67899;DHT22;54699;51.796;10.956;2022-08-19T11:30:59;25.40;52.40
67899;DHT22;54699;51.796;10.956;2022-08-19T11:33:28;25.40;52.60
67899;DHT22;54699;51.796;10.956;2022-08-19T11:35:56;25.40;52.70
67899;DHT22;54699;51.796;10.956;2022-08-19T11:38:25;25.40;52.50
67899;DHT22;54699;51.796;10.956;2022-08-19T11:40:55;25.40;52.40
67899;DHT22;54699;51.796;10.956;2022-08-19T11:43:22;25.40;52.60
67899;DHT22;54699;51.796;10.956;2022-08-19T11:45:52;25.40;52.50
67899;DHT22;54699;51.796;10.956;2022-08-19T11:48:19;25.50;52.50
67899;DHT22;54699;51.796;10.956;2022-08-19T11:50:47;25.40;52.20
67899;DHT22;54699;51.796;10.956;2022-08-19T11:53:14;25.30;53.70
67899;DHT22;54699;51.796;10.956;2022-08-19T11:55:42;25.20;56.30
67899;DHT22;54699;51.796;10.956;2022-08-19T11:58:10;25.20;59.70
67899;DHT22;54699;51.796;10.956;2022-08-19T12:00:37;25.10;59.90
67899;DHT22;54699;51.796;10.956;2022-08-19T12:03:04;25.20;66.00
67899;DHT22;54699;51.796;10.956;2022-08-19T12:05:31;25.20;66.70
67899;DHT22;54699;51.796;10.956;2022-08-19T12:07:58;25.20;67.60
67899;DHT22;54699;51.796;10.956;2022-08-19T12:10:25;25.30;67.80
67899;DHT22;54699;51.796;10.956;2022-08-19T12:12:53;25.30;67.80
67899;DHT22;54699;51.796;10.956;2022-08-19T12:15:20;25.20;68.60
67899;DHT22;54699;51.796;10.956;2022-08-19T12:17:46;25.20;69.00
67899;DHT22;54699;51.796;10.956;2022-08-19T12:20:13;25.20;69.10
67899;DHT22;54699;51.796;10.956;2022-08-19T12:22:42;25.20;69.90
67899;DHT22;54699;51.796;10.956;2022-08-19T12:25:09;25.20;69.50
67899;DHT22;54699;51.796;10.956;2022-08-19T12:27:37;25.20;70.30
67899;DHT22;54699;51.796;10.956;2022-08-19T12:30:08;25.20;70.40
67899;DHT22;54699;51.796;10.956;2022-08-19T12:32:37;25.20;71.30
67899;DHT22;54699;51.796;10.956;2022-08-19T12:35:05;25.20;71.40
67899;DHT22;54699;51.796;10.956;2022-08-19T12:37:33;25.20;71.10
67899;DHT22;54699;51.796;10.956;2022-08-19T12:40:00;25.20;72.00
67899;DHT22;54699;51.796;10.956;2022-08-19T12:42:28;25.20;71.80
67899;DHT22;54699;51.796;10.956;2022-08-19T12:44:54;25.20;71.70
67899;DHT22;54699;51.796;10.956;2022-08-19T12:47:23;25.30;71.90
67899;DHT22;54699;51.796;10.956;2022-08-19T12:49:51;25.30;72.70
67899;DHT22;54699;51.796;10.956;2022-08-19T12:52:17;25.30;72.80
67899;DHT22;54699;51.796;10.956;2022-08-19T12:54:46;25.30;73.30
67899;DHT22;54699;51.796;10.956;2022-08-19T12:57:13;25.30;73.30
67899;DHT22;54699;51.796;10.956;2022-08-19T12:59:40;25.30;72.50
67899;DHT22;54699;51.796;10.956;2022-08-19T13:02:08;25.30;72.00
67899;DHT22;54699;51.796;10.956;2022-08-19T13:04:36;25.40;71.40
67899;DHT22;54699;51.796;10.956;2022-08-19T13:07:06;25.40;72.20
67899;DHT22;54699;51.796;10.956;2022-08-19T13:09:33;25.40;71.00
67899;DHT22;54699;51.796;10.956;2022-08-19T13:12:00;25.40;72.70
67899;DHT22;54699;51.796;10.956;2022-08-19T13:14:32;25.40;71.10
67899;DHT22;54699;51.796;10.956;2022-08-19T13:16:59;25.40;70.80
67899;DHT22;54699;51.796;10.956;2022-08-19T13:19:26;25.40;70.00
67899;DHT22;54699;51.796;10.956;2022-08-19T13:21:55;25.40;70.80
67899;DHT22;54699;51.796;10.956;2022-08-19T13:24:21;25.40;70.00
67899;DHT22;54699;51.796;10.956;2022-08-19T13:26:48;25.50;66.80
67899;DHT22;54699;51.796;10.956;2022-08-19T13:29:14;25.40;66.90
67899;DHT22;54699;51.796;10.956;2022-08-19T13:31:59;25.50;65.80
67899;DHT22;54699;51.796;10.956;2022-08-19T13:34:43;25.50;63.00
67899;DHT22;54699;51.796;10.956;2022-08-19T13:37:13;25.60;62.90
67899;DHT22;54699;51.796;10.956;2022-08-19T13:39:39;25.60;62.50
67899;DHT22;54699;51.796;10.956;2022-08-19T13:42:06;25.60;62.60
67899;DHT22;54699;51.796;10.956;2022-08-19T13:44:35;25.60;62.10
67899;DHT22;54699;51.796;10.956;2022-08-19T13:47:03;25.60;62.50
67899;DHT22;54699;51.796;10.956;2022-08-19T13:49:32;25.70;63.40
67899;DHT22;54699;51.796;10.956;2022-08-19T13:51:59;25.70;63.60
67899;DHT22;54699;51.796;10.956;2022-08-19T13:54:28;25.70;63.40
67899;DHT22;54699;51.796;10.956;2022-08-19T13:56:54;25.80;62.80
67899;DHT22;54699;51.796;10.956;2022-08-19T13:59:21;25.80;63.60
67899;DHT22;54699;51.796;10.956;2022-08-19T14:01:48;25.80;63.20
67899;DHT22;54699;51.796;10.956;2022-08-19T14:04:15;25.90;63.00
67899;DHT22;54699;51.796;10.956;2022-08-19T14:06:41;25.80;62.90
67899;DHT22;54699;51.796;10.956;2022-08-19T14:09:08;25.90;62.60
67899;DHT22;54699;51.796;10.956;2022-08-19T14:11:36;25.90;62.70
67899;DHT22;54699;51.796;10.956;2022-08-19T14:14:03;25.90;63.00
67899;DHT22;54699;51.796;10.956;2022-08-19T14:16:30;25.90;64.10
67899;DHT22;54699;51.796;10.956;2022-08-19T14:18:57;25.90;63.90
67899;DHT22;54699;51.796;10.956;2022-08-19T14:21:24;26.00;63.80
67899;DHT22;54699;51.796;10.956;2022-08-19T14:23:51;26.00;63.70
67899;DHT22;54699;51.796;10.956;2022-08-19T14:26:19;26.00;64.10
67899;DHT22;54699;51.796;10.956;2022-08-19T14:28:48;26.00;64.30
67899;DHT22;54699;51.796;10.956;2022-08-19T14:31:17;26.00;64.60
67899;DHT22;54699;51.796;10.956;2022-08-19T14:33:45;26.00;64.60
67899;DHT22;54699;51.796;10.956;2022-08-19T14:36:13;26.00;64.50
67899;DHT22;54699;51.796;10.956;2022-08-19T14:38:39;26.00;64.60
67899;DHT22;54699;51.796;10.956;2022-08-19T14:41:11;26.00;64.50
67899;DHT22;54699;51.796;10.956;2022-08-19T14:43:42;26.00;64.50
67899;DHT22;54699;51.796;10.956;2022-08-19T14:46:13;26.00;64.50
67899;DHT22;54699;51.796;10.956;2022-08-19T14:48:40;26.00;64.40
67899;DHT22;54699;51.796;10.956;2022-08-19T14:51:06;26.00;64.20
67899;DHT22;54699;51.796;10.956;2022-08-19T14:53:34;26.00;64.00
67899;DHT22;54699;51.796;10.956;2022-08-19T14:56:01;26.00;63.70
67899;DHT22;54699;51.796;10.956;2022-08-19T14:58:32;26.00;63.30
67899;DHT22;54699;51.796;10.956;2022-08-19T15:00:59;26.00;63.20
67899;DHT22;54699;51.796;10.956;2022-08-19T15:03:27;26.00;63.20
67899;DHT22;54699;51.796;10.956;2022-08-19T15:05:55;26.00;63.20
67899;DHT22;54699;51.796;10.956;2022-08-19T15:08:22;26.00;63.00
67899;DHT22;54699;51.796;10.956;2022-08-19T15:10:49;26.00;62.90
67899;DHT22;54699;51.796;10.956;2022-08-19T15:13:17;26.00;62.80
67899;DHT22;54699;51.796;10.956;2022-08-19T15:15:44;26.00;62.80
67899;DHT22;54699;51.796;10.956;2022-08-19T15:18:12;26.00;62.80
67899;DHT22;54699;51.796;10.956;2022-08-19T15:20:40;26.00;63.00
67899;DHT22;54699;51.796;10.956;2022-08-19T15:23:08;26.00;63.00